Etusivu
METAR-TAF:

METAR-TAF

Lentoasemat :

Bromman lentoasema

Tukholma, Ruotsi

Leveyspiiri: 59-21N, Pituuspiiri: 017-57E, korkeus merenpinnasta: 14 m

Tämänhetkinen sää

Tämä raportti tehtiin 23 minuuttia sitten, kello 04.20 UTC
Tuuli 8 kn lännestä/lounaasta
Lämpötila 18°C
Kosteus 77%
Ilmanpaine 1007 hPa
Näkyvyys 10 km tai enemmän

METAR: ESSB 220420Z AUTO 24008KT 9999 NCD 18/14 Q1007

Aika: 06:43 (04:43 UTC)

Sääennuste

Tämä raportti tehtiin 17 tuntia ja 13 minuuttia sitten, kello 11.30 UTC
Ennuste voimassa 21. päivästä klo 12 UTC - 21. päivään klo 15 UTC
Tuuli 8 kn luoteesta
Näkyvyys 10 km tai enemmän
Hajanaisia pilviä 4000 ft:n korkeudessa
Todennäköisyys 40%
21. päivästä klo 12 UTC - 21. päivään klo 15 UTC
Hajonneita pilviä 5000 ft:n korkeudessa, Cumulonimbus.
ukkosmyrsky, sadetta

TAF: ESSB 211130Z 2112/2115 32008KT 9999 SCT040 PROB40 2112/2115 TSRA BKN050CB

Säähavainnot ja -ennusteet yli 4000 lentoasemalta (METAR- ja TAF-raportit).

Käytössä olevat sääasemat on merkitty karttaan keltaisilla ja punaisilla pisteillä.

Aseta hiiri pisteen päälle nähdäksesi sääaseman nimen.

Klikkaa sitten nähdäksesi säähavainnot ja -ennusteet.

Kartan vaihtaminen: klikkaa mustalla rastilla varustettuja vihreitä pisteitä, niin voit zoomata sisään; viivalla varustettua vihreää pistettä, niin voit zoomata ulos tai vihreitä nuolia, niin pääset viereisille kartoille.


METAR-TAF: